Time;durP1;ratioP1;P1;durP2;ratioP2;P2;SDS_P1;SDS_P2;PMS_P1;PMS_P2;Temp;Humidity;BMP_temperature;BMP_pressure;BME280_temperature;BME280_humidity;BME280_pressure;Samples;Min_cycle;Max_cycle;Signal;HPM_P1;HPM_P2
2024/03/21 00:00:10;;;;;;;;;;;;;;;11.03;59.51;98271.84;5103240;28;19924;-81
2024/03/21 00:02:40;;;;;;;;;;;;;;;10.96;59.63;98272.22;5110436;28;20402;-80
2024/03/21 00:05:06;;;;;;;;;;;;;;;10.86;60.21;98266.22;5090809;28;19924;-82
2024/03/21 00:07:33;;;;;;;;;;;;;;;10.79;60.05;98263.09;5092287;28;19931;-82
2024/03/21 00:09:58;;;;;;;;;;;;;;;10.71;60.57;98253.78;5085867;28;20280;-82
2024/03/21 00:12:25;;;;;;;;;;;;;;;10.69;60.74;98245.09;5081763;28;19931;-81
2024/03/21 00:14:51;;;;;;;;;;;;;;;10.71;60.44;98237.47;5087980;28;19924;-82
2024/03/21 00:17:19;;;;;;;;;;;;;;;10.70;60.20;98235.81;5099713;28;19924;-81
2024/03/21 00:19:46;;;;;;;;;;;;;;;10.67;60.46;98241.88;5102241;28;19924;-82
2024/03/21 00:22:13;;;;;;;;;;;;;;;10.66;60.45;98246.53;5104463;28;19924;-82
2024/03/21 00:24:39;;;;;;;;;;;;;;;10.68;60.40;98240.78;5086682;28;20039;-82
2024/03/21 00:27:06;;;;;;;;;;;;;;;10.61;60.41;98246.63;5087043;28;19934;-82
2024/03/21 00:29:31;;;;;;;;;;;;;;;10.63;60.29;98238.97;5087073;28;20554;-82
2024/03/21 00:31:58;;;;;;;;;;;;;;;10.66;60.35;98240.28;5088714;28;19924;-82
2024/03/21 00:34:27;;;;;;;;;;;;;;;10.60;60.57;98246.91;5108568;28;19924;-82
2024/03/21 00:36:56;;;;;;;;;;;;;;;10.52;60.59;98245.72;5090762;28;19924;-81
2024/03/21 00:39:23;;;;;;;;;;;;;;;10.57;60.55;98237.47;5109776;28;19930;-81
2024/03/21 00:41:50;;;;;;;;;;;;;;;10.55;60.64;98242.41;5094199;28;19961;-82
2024/03/21 00:44:17;;;;;;;;;;;;;;;10.63;60.48;98235.44;5084557;28;19931;-82
2024/03/21 00:46:45;;;;;;;;;;;;;;;10.55;60.72;98239.69;5087315;28;19924;-82
2024/03/21 00:49:12;;;;;;;;;;;;;;;10.57;60.51;98239.38;5109507;28;19980;-82
2024/03/21 00:51:39;;;;;;;;;;;;;;;10.58;60.49;98240.97;5108794;28;19981;-82
2024/03/21 00:54:07;;;;;;;;;;;;;;;10.54;60.69;98237.25;5085484;28;19928;-82
2024/03/21 00:56:33;;;;;;;;;;;;;;;10.53;60.51;98243.81;5091362;28;19934;-82
2024/03/21 00:59:00;;;;;;;;;;;;;;;10.55;60.49;98236.97;5094433;28;19928;-82
2024/03/21 01:01:27;;;;;;;;;;;;;;;10.52;60.60;98239.47;5090138;28;19932;-81
2024/03/21 01:03:56;;;;;;;;;;;;;;;10.43;60.84;98234.75;5102500;28;20409;-82
2024/03/21 01:06:22;;;;;;;;;;;;;;;10.44;60.62;98241.81;5100008;28;19981;-81
2024/03/21 01:08:48;;;;;;;;;;;;;;;10.33;60.89;98236.84;5104114;27;19923;-82
2024/03/21 01:11:15;;;;;;;;;;;;;;;10.31;60.77;98234.44;5113075;28;19923;-82
2024/03/21 01:13:42;;;;;;;;;;;;;;;10.26;60.90;98231.81;5104730;28;19927;-81
2024/03/21 01:16:08;;;;;;;;;;;;;;;10.23;60.83;98227.00;5096926;28;19924;-81
2024/03/21 01:18:35;;;;;;;;;;;;;;;10.08;61.39;98229.97;5090111;28;20267;-82
2024/03/21 01:21:01;;;;;;;;;;;;;;;10.10;61.37;98231.28;5110679;28;20387;-81
2024/03/21 01:23:28;;;;;;;;;;;;;;;10.11;61.34;98229.38;5095179;28;19930;-82
2024/03/21 01:25:54;;;;;;;;;;;;;;;10.12;61.34;98220.13;5093672;28;19923;-78
2024/03/21 01:28:22;;;;;;;;;;;;;;;10.15;61.14;98224.94;5092121;28;19931;-78
2024/03/21 01:30:48;;;;;;;;;;;;;;;10.13;61.23;98221.75;5110893;28;19924;-78
2024/03/21 01:33:14;;;;;;;;;;;;;;;10.12;61.17;98220.13;5093261;28;20035;-78
2024/03/21 01:35:40;;;;;;;;;;;;;;;10.09;61.32;98212.59;5080399;28;19924;-78
2024/03/21 01:38:07;;;;;;;;;;;;;;;10.09;61.35;98209.88;5080791;28;19959;-78
2024/03/21 01:40:33;;;;;;;;;;;;;;;10.02;61.24;98204.03;5076080;28;19962;-78
2024/03/21 01:43:00;;;;;;;;;;;;;;;10.08;61.02;98210.97;5109889;28;19929;-77
2024/03/21 01:45:28;;;;;;;;;;;;;;;10.06;61.01;98219.41;5082385;28;19931;-78
2024/03/21 01:47:54;;;;;;;;;;;;;;;9.97;61.21;98213.88;5108800;28;20322;-79
2024/03/21 01:50:20;;;;;;;;;;;;;;;10.00;61.01;98217.09;5080316;28;20149;-78
2024/03/21 01:52:47;;;;;;;;;;;;;;;9.99;61.06;98221.72;5090029;28;20317;-79
2024/03/21 01:55:14;;;;;;;;;;;;;;;9.97;61.04;98226.66;5092886;28;19923;-79
2024/03/21 01:57:41;;;;;;;;;;;;;;;10.05;60.86;98217.81;5091867;28;20298;-79
2024/03/21 02:00:08;;;;;;;;;;;;;;;9.94;61.14;98225.31;5088536;28;20291;-79
2024/03/21 02:02:40;;;;;;;;;;;;;;;10.03;61.04;98216.50;5103010;28;19950;-78
2024/03/21 02:05:07;;;;;;;;;;;;;;;10.00;61.02;98222.53;5092841;28;20495;-78
2024/03/21 02:07:34;;;;;;;;;;;;;;;10.00;61.08;98217.09;5106229;28;19927;-77
2024/03/21 02:10:00;;;;;;;;;;;;;;;9.96;61.05;98212.28;5092468;28;19960;-78
2024/03/21 02:12:43;;;;;;;;;;;;;;;9.92;61.27;98215.88;5105887;28;19924;-79
2024/03/21 02:15:09;;;;;;;;;;;;;;;9.90;61.30;98221.59;5109690;28;19930;-78
2024/03/21 02:17:36;;;;;;;;;;;;;;;9.78;61.63;98215.84;5104838;28;19932;-79
2024/03/21 02:20:04;;;;;;;;;;;;;;;9.87;61.39;98214.06;5093248;28;19965;-78
2024/03/21 02:22:38;;;;;;;;;;;;;;;9.87;61.56;98213.25;5090709;28;19981;-78
2024/03/21 02:25:04;;;;;;;;;;;;;;;9.75;61.75;98205.63;5107588;28;20375;-79
2024/03/21 02:27:31;;;;;;;;;;;;;;;9.71;61.89;98202.69;5106826;28;19932;-78
2024/03/21 02:29:57;;;;;;;;;;;;;;;9.62;62.35;98209.88;5094174;28;19931;-78
2024/03/21 02:32:23;;;;;;;;;;;;;;;9.55;62.41;98208.66;5092339;28;19923;-78
2024/03/21 02:34:49;;;;;;;;;;;;;;;9.67;61.90;98206.28;5076530;28;20550;-78
2024/03/21 02:37:16;;;;;;;;;;;;;;;9.66;61.95;98215.53;5088520;28;19934;-86
2024/03/21 02:39:45;;;;;;;;;;;;;;;9.67;61.72;98209.81;5106473;28;19932;-84
2024/03/21 02:42:12;;;;;;;;;;;;;;;9.68;61.77;98211.41;5088800;28;19924;-83
2024/03/21 02:44:38;;;;;;;;;;;;;;;9.77;61.30;98208.81;5094460;28;19931;-85
2024/03/21 02:47:05;;;;;;;;;;;;;;;9.61;61.76;98212.91;5092224;28;20073;-85
2024/03/21 02:49:30;;;;;;;;;;;;;;;9.41;62.40;98206.72;5109479;28;19934;-86
2024/03/21 02:51:58;;;;;;;;;;;;;;;9.42;62.34;98210.22;5085045;28;19923;-82
2024/03/21 02:54:24;;;;;;;;;;;;;;;9.43;62.30;98204.53;5090869;28;19946;-86
2024/03/21 02:56:53;;;;;;;;;;;;;;;9.45;62.20;98202.31;5105547;28;20375;-84
2024/03/21 02:59:19;;;;;;;;;;;;;;;9.36;62.39;98204.06;5091996;28;19924;-84
2024/03/21 03:01:46;;;;;;;;;;;;;;;9.28;62.47;98202.06;5102616;28;19924;-84
2024/03/21 03:04:12;;;;;;;;;;;;;;;9.20;62.75;98202.72;5096315;28;19927;-84
2024/03/21 03:06:40;;;;;;;;;;;;;;;9.24;62.68;98195.59;5079406;28;19924;-84
2024/03/21 03:09:08;;;;;;;;;;;;;;;9.27;62.47;98194.19;5095272;28;19924;-84
2024/03/21 03:11:37;;;;;;;;;;;;;;;9.18;62.60;98194.88;5094536;28;19924;-85
2024/03/21 03:14:04;;;;;;;;;;;;;;;9.25;62.11;98191.78;5108220;28;19973;-84
2024/03/21 03:16:31;;;;;;;;;;;;;;;9.18;62.22;98186.75;5110570;28;19924;-85
2024/03/21 03:18:57;;;;;;;;;;;;;;;9.12;62.61;98193.34;5106208;28;19931;-83
2024/03/21 03:21:23;;;;;;;;;;;;;;;9.07;62.75;98190.72;5095306;28;19928;-85
2024/03/21 03:23:49;;;;;;;;;;;;;;;8.96;62.81;98185.75;5112808;28;19931;-84
2024/03/21 03:26:17;;;;;;;;;;;;;;;8.88;63.26;98189.91;5113074;28;19928;-84
2024/03/21 03:28:43;;;;;;;;;;;;;;;8.85;63.30;98194.03;5092193;28;20371;-83
2024/03/21 03:31:12;;;;;;;;;;;;;;;8.97;63.01;98195.50;5108181;28;19930;-84
2024/03/21 03:36:26;;;;;;;;;;;;;;;9.03;62.57;98188.88;5079453;28;19924;-82
2024/03/21 03:38:52;;;;;;;;;;;;;;;9.07;62.49;98189.91;5089330;28;19924;-84
2024/03/21 03:41:19;;;;;;;;;;;;;;;9.01;62.72;98191.91;5109859;28;19951;-84
2024/03/21 03:43:46;;;;;;;;;;;;;;;9.01;62.80;98185.69;5092683;28;20475;-84
2024/03/21 03:46:15;;;;;;;;;;;;;;;9.01;62.59;98182.97;5092210;28;19928;-77
2024/03/21 03:48:41;;;;;;;;;;;;;;;9.01;62.44;98188.38;5106722;28;19924;-79
2024/03/21 03:51:08;;;;;;;;;;;;;;;9.10;62.23;98183.88;5095050;28;19932;-78
2024/03/21 03:53:34;;;;;;;;;;;;;;;8.98;62.62;98186.25;5084350;28;19969;-78
2024/03/21 03:56:01;;;;;;;;;;;;;;;8.93;62.70;98184.41;5084536;28;19971;-79
2024/03/21 03:58:27;;;;;;;;;;;;;;;8.89;62.77;98178.81;5091993;28;19924;-78
2024/03/21 04:00:56;;;;;;;;;;;;;;;8.88;62.81;98177.16;5109866;28;19969;-78
2024/03/21 04:03:25;;;;;;;;;;;;;;;8.83;62.88;98171.81;5089117;28;20024;-80
2024/03/21 04:05:54;;;;;;;;;;;;;;;8.88;62.80;98169.03;5101150;28;19924;-80
2024/03/21 04:08:24;;;;;;;;;;;;;;;8.81;62.84;98176.75;5088960;28;19927;-79
2024/03/21 04:10:50;;;;;;;;;;;;;;;8.82;62.97;98178.34;5077779;28;19924;-79
2024/03/21 04:13:16;;;;;;;;;;;;;;;8.78;63.17;98176.50;5073653;28;20276;-78
2024/03/21 04:15:42;;;;;;;;;;;;;;;8.78;63.08;98182.72;5078978;28;19924;-78
2024/03/21 04:18:09;;;;;;;;;;;;;;;8.84;63.00;98184.28;5100339;28;19924;-79
2024/03/21 04:20:36;;;;;;;;;;;;;;;8.77;63.05;98186.53;5088492;28;20295;-78
2024/03/21 04:23:04;;;;;;;;;;;;;;;8.76;63.08;98178.72;5087497;28;19947;-78
2024/03/21 04:25:29;;;;;;;;;;;;;;;8.71;63.30;98185.00;5101754;28;19924;-77
2024/03/21 04:27:56;;;;;;;;;;;;;;;8.72;63.15;98183.91;5105345;28;20212;-78
2024/03/21 04:30:22;;;;;;;;;;;;;;;8.65;63.70;98184.28;5092192;28;19943;-79
2024/03/21 04:32:48;;;;;;;;;;;;;;;8.64;63.58;98181.88;5090408;28;19924;-78
2024/03/21 04:35:14;;;;;;;;;;;;;;;8.77;63.31;98175.72;5111140;28;19924;-78
2024/03/21 04:37:43;;;;;;;;;;;;;;;8.64;63.72;98181.88;5086118;28;19931;-79
2024/03/21 04:40:10;;;;;;;;;;;;;;;8.64;63.89;98188.09;5113184;28;19924;-77
2024/03/21 04:42:36;;;;;;;;;;;;;;;8.80;63.54;98182.47;5089939;28;19923;-78
2024/03/21 04:45:04;;;;;;;;;;;;;;;8.48;64.51;98188.59;5112259;28;19930;-78
2024/03/21 04:47:31;;;;;;;;;;;;;;;8.65;64.10;98183.47;5092745;28;19924;-79
2024/03/21 04:49:57;;;;;;;;;;;;;;;8.59;64.07;98190.06;5111743;28;19924;-79
2024/03/21 04:52:25;;;;;;;;;;;;;;;8.63;63.99;98180.25;5094584;28;20480;-78
2024/03/21 04:54:53;;;;;;;;;;;;;;;8.52;64.40;98182.31;5101063;28;19924;-79
2024/03/21 04:57:19;;;;;;;;;;;;;;;8.54;64.23;98182.00;5098888;28;19932;-85
2024/03/21 04:59:53;;;;;;;;;;;;;;;8.55;64.14;98189.03;5116040;27;19931;-85
2024/03/21 05:02:19;;;;;;;;;;;;;;;8.51;64.56;98183.38;5098957;28;19931;-86
2024/03/21 05:04:46;;;;;;;;;;;;;;;8.55;64.38;98186.31;5108226;28;20030;-86
2024/03/21 05:07:12;;;;;;;;;;;;;;;8.56;64.41;98182.50;5094759;28;19924;-86
2024/03/21 05:09:39;;;;;;;;;;;;;;;8.73;64.15;98190.13;5093230;28;20336;-86
2024/03/21 05:12:06;;;;;;;;;;;;;;;8.75;63.91;98186.03;5113633;28;20287;-85
2024/03/21 05:14:34;;;;;;;;;;;;;;;8.76;64.06;98187.66;5110979;28;19931;-85
2024/03/21 05:17:00;;;;;;;;;;;;;;;8.95;63.51;98184.94;5115746;27;19969;-85
2024/03/21 05:19:27;;;;;;;;;;;;;;;8.97;63.14;98188.16;5091031;28;19998;-85
2024/03/21 05:22:18;;;;;;;;;;;;;;;8.93;63.28;98195.25;5106662;28;19934;-85
2024/03/21 05:24:45;;;;;;;;;;;;;;;9.07;63.15;98192.63;5095259;28;19923;-85
2024/03/21 05:27:15;;;;;;;;;;;;;;;9.02;62.91;98187.28;5115657;28;19931;-84
2024/03/21 05:29:42;;;;;;;;;;;;;;;9.21;62.53;98192.66;5098475;28;19931;-88
2024/03/21 05:32:08;;;;;;;;;;;;;;;9.31;62.24;98187.88;5112181;28;19930;-84
2024/03/21 05:34:35;;;;;;;;;;;;;;;9.38;61.88;98195.66;5082862;28;19924;-85
2024/03/21 05:37:01;;;;;;;;;;;;;;;9.37;61.92;98183.19;5095324;28;20355;-85
2024/03/21 05:39:31;;;;;;;;;;;;;;;9.35;62.12;98182.69;5104249;28;20002;-86
2024/03/21 05:41:57;;;;;;;;;;;;;;;9.29;62.22;98187.38;5113767;28;19931;-84
2024/03/21 05:44:51;;;;;;;;;;;;;;;9.36;62.10;98178.88;5113644;28;19928;-83
2024/03/21 05:47:22;;;;;;;;;;;;;;;9.37;61.97;98184.00;5095212;28;20351;-85
2024/03/21 05:49:50;;;;;;;;;;;;;;;9.38;62.22;98182.09;5092038;28;19998;-82
2024/03/21 05:52:15;;;;;;;;;;;;;;;9.43;61.87;98182.03;5100428;28;20372;-84
2024/03/21 05:54:42;;;;;;;;;;;;;;;9.34;62.09;98187.31;5114317;28;19955;-77
2024/03/21 05:57:08;;;;;;;;;;;;;;;9.48;61.72;98181.09;5091711;28;19966;-83
2024/03/21 05:59:35;;;;;;;;;;;;;;;9.37;62.03;98180.47;5086016;28;19931;-82
2024/03/21 06:02:01;;;;;;;;;;;;;;;9.32;62.14;98180.56;5089162;28;20391;-81
2024/03/21 06:04:29;;;;;;;;;;;;;;;9.32;62.31;98186.81;5090904;28;19927;-78
2024/03/21 06:06:55;;;;;;;;;;;;;;;9.47;61.95;98187.63;5092349;28;19946;-76
2024/03/21 06:09:24;;;;;;;;;;;;;;;9.53;61.86;98189.16;5093083;28;19928;-89
2024/03/21 06:11:52;;;;;;;;;;;;;;;9.52;62.05;98184.84;5086391;28;19930;-85
2024/03/21 06:14:19;;;;;;;;;;;;;;;9.54;61.94;98185.38;5086804;28;19924;-81
2024/03/21 06:16:45;;;;;;;;;;;;;;;9.53;62.02;98186.44;5106219;28;20271;-82
2024/03/21 06:19:11;;;;;;;;;;;;;;;9.54;62.16;98182.66;5114329;28;19923;-83
2024/03/21 06:21:39;;;;;;;;;;;;;;;9.60;61.98;98184.97;5106528;28;19924;-81
2024/03/21 06:24:07;;;;;;;;;;;;;;;9.54;61.98;98177.22;5093500;28;19923;-82
2024/03/21 06:26:33;;;;;;;;;;;;;;;9.63;61.93;98180.84;5085972;28;19928;-84
2024/03/21 06:29:00;;;;;;;;;;;;;;;9.77;61.89;98181.69;5096213;28;20056;-85
2024/03/21 06:31:26;;;;;;;;;;;;;;;9.80;61.50;98185.69;5096485;28;19925;-87
2024/03/21 06:33:52;;;;;;;;;;;;;;;9.92;61.41;98194.97;5088935;28;19923;-95
2024/03/21 06:36:19;;;;;;;;;;;;;;;9.86;61.69;98190.75;5096707;28;19931;-86
2024/03/21 06:38:47;;;;;;;;;;;;;;;9.96;61.51;98201.44;5084625;28;19924;-87
2024/03/21 06:41:13;;;;;;;;;;;;;;;10.05;61.52;98208.84;5088161;28;19935;-80
2024/03/21 06:43:40;;;;;;;;;;;;;;;10.16;61.12;98202.94;5092479;28;19924;-85
2024/03/21 06:46:05;;;;;;;;;;;;;;;10.26;60.83;98204.69;5094167;28;19924;-87
2024/03/21 06:48:32;;;;;;;;;;;;;;;10.33;60.59;98210.50;5095530;28;20375;-85
2024/03/21 06:54:03;;;;;;;;;;;;;;;10.43;60.60;98212.22;5106675;28;19924;-84
2024/03/21 06:56:28;;;;;;;;;;;;;;;10.44;60.62;98211.94;5074887;28;19924;-83
2024/03/21 06:58:56;;;;;;;;;;;;;;;10.47;60.68;98207.78;5076035;28;20014;-83
2024/03/21 07:01:21;;;;;;;;;;;;;;;10.55;60.47;98206.28;5102383;28;19928;-82
2024/03/21 07:03:48;;;;;;;;;;;;;;;10.65;60.09;98209.59;5093878;28;20113;-82
2024/03/21 07:06:14;;;;;;;;;;;;;;;10.58;60.46;98209.19;5080541;28;19985;-84
2024/03/21 07:08:41;;;;;;;;;;;;;;;10.47;60.87;98208.59;5094827;28;20376;-84
2024/03/21 07:11:08;;;;;;;;;;;;;;;10.55;60.42;98219.88;5093391;28;19924;-84
2024/03/21 07:13:35;;;;;;;;;;;;;;;10.52;60.77;98215.84;5094386;28;19927;-84
2024/03/21 07:16:04;;;;;;;;;;;;;;;10.59;60.52;98220.84;5091881;28;20039;-83
2024/03/21 07:18:30;;;;;;;;;;;;;;;10.59;60.65;98212.69;5094082;28;19973;-84
2024/03/21 07:20:57;;;;;;;;;;;;;;;10.55;60.78;98223.38;5077471;28;20336;-83
2024/03/21 07:23:23;;;;;;;;;;;;;;;10.65;60.69;98231.34;5089597;28;19928;-84
2024/03/21 07:25:50;;;;;;;;;;;;;;;10.62;60.76;98233.84;5105786;28;20380;-82
2024/03/21 07:28:17;;;;;;;;;;;;;;;10.76;60.62;98240.06;5087288;28;19970;-82
2024/03/21 07:30:45;;;;;;;;;;;;;;;10.85;60.46;98232.78;5109490;28;19971;-82
2024/03/21 07:33:11;;;;;;;;;;;;;;;10.85;60.46;98246.38;5076688;28;20022;-82
2024/03/21 07:35:38;;;;;;;;;;;;;;;10.64;60.72;98245.19;5092918;28;19924;-81
2024/03/21 07:38:03;;;;;;;;;;;;;;;10.83;60.61;98251.31;5109774;28;19979;-80
2024/03/21 07:40:31;;;;;;;;;;;;;;;10.93;60.48;98251.13;5081885;28;19924;-82
2024/03/21 07:42:56;;;;;;;;;;;;;;;11.02;60.22;98253.91;5074005;28;20423;-80
2024/03/21 07:45:24;;;;;;;;;;;;;;;11.16;60.26;98262.03;5093070;28;19944;-86
2024/03/21 07:47:50;;;;;;;;;;;;;;;11.22;60.32;98268.97;5076690;28;19924;-85
2024/03/21 07:50:17;;;;;;;;;;;;;;;11.34;60.02;98271.94;5087969;28;19923;-83
2024/03/21 07:52:43;;;;;;;;;;;;;;;11.23;60.03;98270.56;5096218;28;19924;-84
2024/03/21 07:55:11;;;;;;;;;;;;;;;11.31;60.00;98269.03;5095352;28;19930;-84
2024/03/21 07:57:36;;;;;;;;;;;;;;;11.32;59.69;98262.50;5095700;28;19923;-83
2024/03/21 08:00:05;;;;;;;;;;;;;;;11.39;59.75;98260.94;5110969;28;19927;-83
2024/03/21 08:02:32;;;;;;;;;;;;;;;11.52;59.92;98264.75;5094152;28;19924;-85
2024/03/21 08:04:59;;;;;;;;;;;;;;;11.55;59.52;98267.63;5094940;28;20776;-80
2024/03/21 08:07:25;;;;;;;;;;;;;;;11.51;59.92;98266.66;5095597;28;19967;-81
2024/03/21 08:09:52;;;;;;;;;;;;;;;11.73;59.19;98267.78;5099205;28;19958;-84
2024/03/21 08:12:18;;;;;;;;;;;;;;;11.82;59.25;98265.91;5099818;28;20362;-84
2024/03/21 08:14:45;;;;;;;;;;;;;;;11.83;59.10;98270.28;5099618;28;19927;-84
2024/03/21 08:17:30;;;;;;;;;;;;;;;11.91;58.73;98260.53;5096922;28;19924;-85
2024/03/21 08:19:59;;;;;;;;;;;;;;;11.92;58.38;98262.94;5099651;28;19969;-86
2024/03/21 08:22:24;;;;;;;;;;;;;;;11.97;57.93;98268.25;5097343;28;19928;-85
2024/03/21 08:24:51;;;;;;;;;;;;;;;12.03;57.86;98274.38;5097357;28;20366;-80
2024/03/21 08:27:19;;;;;;;;;;;;;;;12.13;57.72;98276.03;5097427;28;19928;-79
2024/03/21 08:29:46;;;;;;;;;;;;;;;12.21;57.68;98261.69;5092902;28;19924;-78
2024/03/21 08:32:12;;;;;;;;;;;;;;;12.21;57.75;98253.50;5097424;28;19947;-79
2024/03/21 08:34:39;;;;;;;;;;;;;;;12.27;57.78;98266.66;5113738;28;20372;-80
2024/03/21 08:37:07;;;;;;;;;;;;;;;12.38;57.60;98264.47;5107099;28;19924;-81
2024/03/21 08:39:35;;;;;;;;;;;;;;;12.35;57.35;98267.00;5087358;28;19927;-82
2024/03/21 08:42:00;;;;;;;;;;;;;;;12.39;57.08;98262.56;5083339;28;19947;-81
2024/03/21 08:44:27;;;;;;;;;;;;;;;12.46;57.32;98273.78;5097208;28;20287;-81
2024/03/21 08:46:54;;;;;;;;;;;;;;;12.50;56.59;98275.56;5097373;28;19927;-81
2024/03/21 08:49:21;;;;;;;;;;;;;;;12.51;56.32;98274.44;5088763;28;20440;-81
2024/03/21 08:51:46;;;;;;;;;;;;;;;12.58;56.36;98272.09;5108034;28;20326;-81
2024/03/21 08:54:15;;;;;;;;;;;;;;;12.63;56.32;98267.63;5083139;28;19934;-81
2024/03/21 08:56:40;;;;;;;;;;;;;;;12.70;56.24;98265.22;5097689;28;19924;-81
2024/03/21 08:59:10;;;;;;;;;;;;;;;12.77;55.85;98269.09;5097517;28;19938;-77
2024/03/21 09:01:36;;;;;;;;;;;;;;;12.77;55.61;98281.91;5103321;28;19935;-77
2024/03/21 09:04:02;;;;;;;;;;;;;;;12.78;55.68;98278.06;5112562;28;20797;-79
2024/03/21 09:06:31;;;;;;;;;;;;;;;12.86;55.56;98274.56;5097763;28;19973;-82
2024/03/21 09:08:58;;;;;;;;;;;;;;;12.96;55.41;98259.84;5112618;28;19924;-84
2024/03/21 09:11:26;;;;;;;;;;;;;;;13.02;55.20;98256.63;5110825;28;19934;-79
2024/03/21 09:13:53;;;;;;;;;;;;;;;13.03;54.91;98260.97;5110438;28;19959;-93
2024/03/21 09:16:19;;;;;;;;;;;;;;;13.08;55.09;98255.34;5095798;28;19955;-82
2024/03/21 09:18:46;;;;;;;;;;;;;;;13.15;55.08;98257.59;5105509;27;19932;-81
2024/03/21 09:21:12;;;;;;;;;;;;;;;13.27;55.72;98257.03;5111165;28;19931;-87
2024/03/21 09:23:43;;;;;;;;;;;;;;;13.41;55.54;98256.84;5092343;28;19960;-82
2024/03/21 09:26:09;;;;;;;;;;;;;;;13.57;55.33;98252.50;5101825;28;20350;-81
2024/03/21 09:28:37;;;;;;;;;;;;;;;13.61;54.95;98248.81;5100159;28;19966;-79
2024/03/21 09:31:03;;;;;;;;;;;;;;;13.66;54.18;98249.78;5089476;28;21851;-83
2024/03/21 09:33:30;;;;;;;;;;;;;;;13.68;54.17;98252.97;5111607;28;20389;-82
2024/03/21 09:35:56;;;;;;;;;;;;;;;13.75;54.05;98247.84;5090312;28;19924;-88
2024/03/21 09:38:23;;;;;;;;;;;;;;;13.82;53.69;98250.88;5094052;28;19931;-82
2024/03/21 09:40:50;;;;;;;;;;;;;;;13.84;54.03;98262.28;5100819;28;19930;-77
2024/03/21 09:43:16;;;;;;;;;;;;;;;13.94;53.51;98261.94;5090150;28;22408;-82
2024/03/21 09:45:45;;;;;;;;;;;;;;;14.00;53.70;98260.63;5102862;28;19924;-81
2024/03/21 09:48:12;;;;;;;;;;;;;;;14.00;53.63;98255.16;5109335;28;19966;-82
2024/03/21 09:50:38;;;;;;;;;;;;;;;14.07;53.72;98260.97;5108753;28;19939;-78
2024/03/21 09:53:05;;;;;;;;;;;;;;;14.16;53.66;98247.25;5109441;28;19932;-80
2024/03/21 09:55:31;;;;;;;;;;;;;;;14.26;53.38;98251.56;5086953;28;19930;-80
2024/03/21 09:57:58;;;;;;;;;;;;;;;14.28;53.27;98238.41;5093524;28;19928;-82
2024/03/21 10:00:24;;;;;;;;;;;;;;;14.34;53.05;98242.53;5111418;28;19932;-81
2024/03/21 10:02:52;;;;;;;;;;;;;;;14.40;53.27;98239.31;5093619;28;19930;-80
2024/03/21 10:05:21;;;;;;;;;;;;;;;14.46;52.98;98237.19;5087206;28;19928;-82
2024/03/21 10:07:49;;;;;;;;;;;;;;;14.64;52.86;98226.97;5110567;28;19958;-82
2024/03/21 10:10:15;;;;;;;;;;;;;;;14.80;52.82;98233.47;5113384;28;19935;-81
2024/03/21 10:12:41;;;;;;;;;;;;;;;14.85;52.54;98219.63;5105772;28;19924;-80
2024/03/21 10:15:10;;;;;;;;;;;;;;;14.96;52.89;98236.44;5097926;28;19931;-84
2024/03/21 10:17:36;;;;;;;;;;;;;;;14.97;52.22;98240.81;5112765;28;20414;-83
2024/03/21 10:20:04;;;;;;;;;;;;;;;14.98;51.91;98245.13;5109691;28;19976;-89
2024/03/21 10:22:31;;;;;;;;;;;;;;;15.02;52.26;98248.81;5087109;28;19928;-82
2024/03/21 10:24:57;;;;;;;;;;;;;;;15.04;52.45;98249.28;5103956;28;19927;-83
2024/03/21 10:27:24;;;;;;;;;;;;;;;15.01;52.56;98249.94;5092210;28;20034;-84
2024/03/21 10:29:51;;;;;;;;;;;;;;;15.02;52.77;98262.50;5089901;28;19935;-79
2024/03/21 10:32:18;;;;;;;;;;;;;;;14.93;53.32;98259.00;5108839;28;19924;-81
2024/03/21 10:34:50;;;;;;;;;;;;;;;14.98;52.98;98263.50;5091546;28;19924;-80
2024/03/21 10:37:19;;;;;;;;;;;;;;;15.02;53.37;98278.91;5110117;28;20019;-80
2024/03/21 10:39:45;;;;;;;;;;;;;;;15.07;53.31;98270.50;5099360;28;20031;-80
2024/03/21 10:42:18;;;;;;;;;;;;;;;15.10;53.15;98275.31;5092513;28;19924;-80
2024/03/21 10:44:47;;;;;;;;;;;;;;;15.03;53.50;98280.53;5096997;28;20030;-80
2024/03/21 10:47:15;;;;;;;;;;;;;;;15.02;53.50;98278.09;5099958;28;19924;-83
2024/03/21 10:49:40;;;;;;;;;;;;;;;14.85;54.00;98290.72;5112301;28;19950;-82
2024/03/21 10:52:08;;;;;;;;;;;;;;;14.87;54.12;98282.22;5099284;28;20427;-82
2024/03/21 10:54:38;;;;;;;;;;;;;;;14.91;54.02;98283.16;5093327;28;19924;-83
2024/03/21 10:57:15;;;;;;;;;;;;;;;14.90;54.12;98285.06;5079666;28;19946;-82
2024/03/21 10:59:41;;;;;;;;;;;;;;;14.91;54.03;98283.16;5075953;28;19932;-82
2024/03/21 11:02:08;;;;;;;;;;;;;;;14.80;54.44;98282.72;5085004;28;19924;-82
2024/03/21 11:04:34;;;;;;;;;;;;;;;14.74;54.77;98280.50;5095463;28;19931;-83
2024/03/21 11:07:01;;;;;;;;;;;;;;;14.63;55.23;98277.34;5096183;28;19963;-86
2024/03/21 11:09:28;;;;;;;;;;;;;;;14.75;55.17;98273.91;5114051;28;20371;-91
2024/03/21 11:11:56;;;;;;;;;;;;;;;14.83;55.11;98279.34;5093950;28;19930;-89
2024/03/21 11:14:22;;;;;;;;;;;;;;;14.99;54.77;98287.78;5091086;28;19931;-83
2024/03/21 11:16:53;;;;;;;;;;;;;;;15.19;54.69;98281.53;5108776;28;19973;-83
2024/03/21 11:19:21;;;;;;;;;;;;;;;15.25;54.26;98286.81;5093190;28;20022;-83
2024/03/21 11:21:48;;;;;;;;;;;;;;;15.35;54.33;98284.47;5096335;28;20003;-86
2024/03/21 11:24:14;;;;;;;;;;;;;;;15.43;54.12;98288.28;5112591;28;19931;-85
2024/03/21 11:26:43;;;;;;;;;;;;;;;15.39;53.34;98293.63;5109104;28;19970;-82
2024/03/21 11:29:12;;;;;;;;;;;;;;;15.30;53.38;98292.91;5095029;28;19928;-82
2024/03/21 11:31:41;;;;;;;;;;;;;;;15.32;54.01;98298.03;5091996;28;19924;-82
2024/03/21 11:34:08;;;;;;;;;;;;;;;15.29;53.97;98293.25;5092122;28;19924;-83
2024/03/21 11:36:35;;;;;;;;;;;;;;;15.23;54.29;98291.81;5103899;28;19946;-82
2024/03/21 11:39:04;;;;;;;;;;;;;;;15.09;53.98;98312.03;5087210;28;19924;-82
2024/03/21 11:41:31;;;;;;;;;;;;;;;14.85;56.50;98328.22;5091285;28;19931;-82
2024/03/21 11:43:59;;;;;;;;;;;;;;;14.49;62.25;98332.25;5095328;28;20332;-82
2024/03/21 11:46:27;;;;;;;;;;;;;;;14.23;67.94;98339.69;5095141;28;20379;-83
2024/03/21 11:49:02;;;;;;;;;;;;;;;13.96;70.58;98349.03;5091945;28;20085;-83
2024/03/21 11:51:29;;;;;;;;;;;;;;;13.74;69.64;98347.25;5096978;28;20425;-86
2024/03/21 11:53:55;;;;;;;;;;;;;;;13.67;70.30;98338.75;5097199;28;20494;-88
2024/03/21 11:56:22;;;;;;;;;;;;;;;13.58;69.89;98349.66;5096742;28;19959;-83
2024/03/21 11:58:48;;;;;;;;;;;;;;;13.57;69.63;98340.66;5112634;28;19927;-79
2024/03/21 12:01:14;;;;;;;;;;;;;;;13.51;70.43;98350.13;5108686;28;19970;-86
2024/03/21 12:03:42;;;;;;;;;;;;;;;13.54;70.07;98360.44;5091565;28;19934;-85
2024/03/21 12:06:09;;;;;;;;;;;;;;;13.52;71.04;98359.94;5087962;28;19931;-86
2024/03/21 12:08:34;;;;;;;;;;;;;;;13.49;70.43;98359.78;5092513;28;19928;-86
2024/03/21 12:11:30;;;;;;;;;;;;;;;13.44;72.19;98355.28;5105805;28;20466;-86
2024/03/21 12:13:56;;;;;;;;;;;;;;;13.62;71.24;98358.81;5094682;28;20331;-90
2024/03/21 12:16:23;;;;;;;;;;;;;;;13.61;70.17;98358.03;5091881;28;20018;-93
2024/03/21 12:18:50;;;;;;;;;;;;;;;13.71;70.35;98367.81;5106914;28;20015;-90
2024/03/21 12:21:17;;;;;;;;;;;;;;;13.74;71.34;98380.03;5103517;28;20022;-89
2024/03/21 12:23:43;;;;;;;;;;;;;;;13.70;70.11;98373.63;5099468;28;19924;-91
2024/03/21 12:26:11;;;;;;;;;;;;;;;13.82;70.61;98371.03;5086885;28;19981;-90
2024/03/21 12:28:37;;;;;;;;;;;;;;;13.85;69.78;98373.16;5108066;28;19924;-86
2024/03/21 12:31:04;;;;;;;;;;;;;;;13.83;69.09;98370.72;5089851;28;19923;-88
2024/03/21 12:33:29;;;;;;;;;;;;;;;13.97;68.60;98369.75;5059988;22;19979;-86
2024/03/21 12:35:58;;;;;;;;;;;;;;;14.00;67.79;98369.09;5056755;28;20345;-84
2024/03/21 12:38:24;;;;;;;;;;;;;;;13.97;67.97;98373.28;5041923;28;19932;-79
2024/03/21 12:40:51;;;;;;;;;;;;;;;14.12;67.34;98361.06;5052399;28;19924;-79
2024/03/21 12:43:17;;;;;;;;;;;;;;;14.08;67.29;98369.09;5056618;28;20019;-80
2024/03/21 12:45:45;;;;;;;;;;;;;;;14.10;67.24;98368.78;5068572;28;19978;-79
2024/03/21 12:48:10;;;;;;;;;;;;;;;14.03;66.77;98363.81;5043719;28;19925;-79
2024/03/21 12:50:37;;;;;;;;;;;;;;;14.06;66.90;98354.16;5043603;28;20431;-79
2024/03/21 12:53:04;;;;;;;;;;;;;;;14.11;66.22;98359.44;5054245;28;19924;-79
2024/03/21 12:55:31;;;;;;;;;;;;;;;14.23;66.43;98361.53;5063465;28;19981;-79